sensor_id;sensor_type;location;lat;lon;timestamp;P1;durP1;ratioP1;P2;durP2;ratioP2
16737;SDS011;17906;47.684;10.806;2023-06-10T00:00:23;7.77;;;5.57;;
16737;SDS011;17906;47.684;10.806;2023-06-10T00:02:50;8.33;;;5.50;;
16737;SDS011;17906;47.684;10.806;2023-06-10T00:05:17;7.77;;;5.50;;
16737;SDS011;17906;47.684;10.806;2023-06-10T00:07:46;7.47;;;5.57;;
16737;SDS011;17906;47.684;10.806;2023-06-10T00:10:13;7.27;;;5.10;;
16737;SDS011;17906;47.684;10.806;2023-06-10T00:12:39;7.70;;;6.17;;
16737;SDS011;17906;47.684;10.806;2023-06-10T00:15:07;7.77;;;5.17;;
16737;SDS011;17906;47.684;10.806;2023-06-10T00:17:33;7.17;;;5.27;;
16737;SDS011;17906;47.684;10.806;2023-06-10T00:20:06;7.17;;;5.07;;
16737;SDS011;17906;47.684;10.806;2023-06-10T00:22:34;7.17;;;5.57;;
16737;SDS011;17906;47.684;10.806;2023-06-10T00:25:00;6.73;;;5.30;;
16737;SDS011;17906;47.684;10.806;2023-06-10T00:27:28;8.73;;;6.00;;
16737;SDS011;17906;47.684;10.806;2023-06-10T00:30:00;7.90;;;5.60;;
16737;SDS011;17906;47.684;10.806;2023-06-10T00:32:26;7.27;;;5.70;;
16737;SDS011;17906;47.684;10.806;2023-06-10T00:34:52;9.13;;;6.10;;
16737;SDS011;17906;47.684;10.806;2023-06-10T00:37:20;6.80;;;5.30;;
16737;SDS011;17906;47.684;10.806;2023-06-10T00:39:47;8.67;;;5.63;;
16737;SDS011;17906;47.684;10.806;2023-06-10T00:42:13;8.70;;;5.87;;
16737;SDS011;17906;47.684;10.806;2023-06-10T00:44:40;6.90;;;5.40;;
16737;SDS011;17906;47.684;10.806;2023-06-10T00:47:06;7.47;;;5.80;;
16737;SDS011;17906;47.684;10.806;2023-06-10T00:49:33;8.10;;;5.87;;
16737;SDS011;17906;47.684;10.806;2023-06-10T00:52:00;8.03;;;5.97;;
16737;SDS011;17906;47.684;10.806;2023-06-10T00:54:28;8.93;;;6.20;;
16737;SDS011;17906;47.684;10.806;2023-06-10T00:56:55;8.53;;;5.90;;
16737;SDS011;17906;47.684;10.806;2023-06-10T00:59:22;10.63;;;5.73;;
16737;SDS011;17906;47.684;10.806;2023-06-10T01:01:50;6.53;;;5.07;;
16737;SDS011;17906;47.684;10.806;2023-06-10T01:04:17;5.97;;;5.00;;
16737;SDS011;17906;47.684;10.806;2023-06-10T01:06:46;7.93;;;5.60;;
16737;SDS011;17906;47.684;10.806;2023-06-10T01:09:17;11.13;;;6.00;;
16737;SDS011;17906;47.684;10.806;2023-06-10T01:11:47;8.07;;;6.33;;
16737;SDS011;17906;47.684;10.806;2023-06-10T01:14:14;9.27;;;5.90;;
16737;SDS011;17906;47.684;10.806;2023-06-10T01:16:41;12.00;;;6.20;;
16737;SDS011;17906;47.684;10.806;2023-06-10T01:19:10;8.60;;;5.90;;
16737;SDS011;17906;47.684;10.806;2023-06-10T01:21:39;10.07;;;6.03;;
16737;SDS011;17906;47.684;10.806;2023-06-10T01:24:05;7.83;;;6.10;;
16737;SDS011;17906;47.684;10.806;2023-06-10T01:26:35;7.17;;;5.50;;
16737;SDS011;17906;47.684;10.806;2023-06-10T01:29:04;7.83;;;5.60;;
16737;SDS011;17906;47.684;10.806;2023-06-10T01:31:35;11.13;;;6.30;;
16737;SDS011;17906;47.684;10.806;2023-06-10T01:34:03;9.30;;;6.40;;
16737;SDS011;17906;47.684;10.806;2023-06-10T01:36:31;6.60;;;5.20;;
16737;SDS011;17906;47.684;10.806;2023-06-10T01:38:59;8.00;;;5.37;;
16737;SDS011;17906;47.684;10.806;2023-06-10T01:41:25;7.37;;;5.40;;
16737;SDS011;17906;47.684;10.806;2023-06-10T01:43:53;8.67;;;6.07;;
16737;SDS011;17906;47.684;10.806;2023-06-10T01:46:20;9.00;;;6.17;;
16737;SDS011;17906;47.684;10.806;2023-06-10T01:48:47;7.60;;;5.93;;
16737;SDS011;17906;47.684;10.806;2023-06-10T01:51:13;10.10;;;5.77;;
16737;SDS011;17906;47.684;10.806;2023-06-10T01:53:40;9.13;;;5.80;;
16737;SDS011;17906;47.684;10.806;2023-06-10T01:56:07;9.27;;;5.97;;
16737;SDS011;17906;47.684;10.806;2023-06-10T01:58:34;9.37;;;5.97;;
16737;SDS011;17906;47.684;10.806;2023-06-10T02:01:00;7.77;;;5.43;;
16737;SDS011;17906;47.684;10.806;2023-06-10T02:03:26;7.60;;;5.93;;
16737;SDS011;17906;47.684;10.806;2023-06-10T02:05:53;7.50;;;5.70;;
16737;SDS011;17906;47.684;10.806;2023-06-10T02:08:19;8.67;;;5.90;;
16737;SDS011;17906;47.684;10.806;2023-06-10T02:10:46;9.10;;;5.60;;
16737;SDS011;17906;47.684;10.806;2023-06-10T02:13:13;9.73;;;5.77;;
16737;SDS011;17906;47.684;10.806;2023-06-10T02:15:40;8.43;;;6.00;;
16737;SDS011;17906;47.684;10.806;2023-06-10T02:18:06;11.00;;;5.93;;
16737;SDS011;17906;47.684;10.806;2023-06-10T02:20:33;7.30;;;5.60;;
16737;SDS011;17906;47.684;10.806;2023-06-10T02:22:59;8.03;;;5.90;;
16737;SDS011;17906;47.684;10.806;2023-06-10T02:25:25;8.87;;;5.60;;
16737;SDS011;17906;47.684;10.806;2023-06-10T02:27:52;8.67;;;5.70;;
16737;SDS011;17906;47.684;10.806;2023-06-10T02:30:20;7.37;;;5.87;;
16737;SDS011;17906;47.684;10.806;2023-06-10T02:32:46;8.00;;;5.50;;
16737;SDS011;17906;47.684;10.806;2023-06-10T02:35:13;7.53;;;5.57;;
16737;SDS011;17906;47.684;10.806;2023-06-10T02:37:40;7.63;;;5.80;;
16737;SDS011;17906;47.684;10.806;2023-06-10T02:40:06;7.90;;;5.83;;
16737;SDS011;17906;47.684;10.806;2023-06-10T02:42:33;8.13;;;5.87;;
16737;SDS011;17906;47.684;10.806;2023-06-10T02:45:00;8.57;;;6.07;;
16737;SDS011;17906;47.684;10.806;2023-06-10T02:47:28;9.10;;;6.37;;
16737;SDS011;17906;47.684;10.806;2023-06-10T02:49:54;9.17;;;6.73;;
16737;SDS011;17906;47.684;10.806;2023-06-10T02:52:21;11.43;;;6.93;;
16737;SDS011;17906;47.684;10.806;2023-06-10T02:54:47;9.00;;;6.30;;
16737;SDS011;17906;47.684;10.806;2023-06-10T02:57:14;10.47;;;6.63;;
16737;SDS011;17906;47.684;10.806;2023-06-10T02:59:40;8.53;;;6.00;;
16737;SDS011;17906;47.684;10.806;2023-06-10T03:02:07;7.67;;;5.53;;
16737;SDS011;17906;47.684;10.806;2023-06-10T03:04:35;10.57;;;6.37;;
16737;SDS011;17906;47.684;10.806;2023-06-10T03:07:02;9.13;;;6.10;;
16737;SDS011;17906;47.684;10.806;2023-06-10T03:09:32;9.90;;;6.23;;
16737;SDS011;17906;47.684;10.806;2023-06-10T03:11:58;8.73;;;6.13;;
16737;SDS011;17906;47.684;10.806;2023-06-10T03:14:25;8.77;;;6.30;;
16737;SDS011;17906;47.684;10.806;2023-06-10T03:16:52;9.07;;;6.13;;
16737;SDS011;17906;47.684;10.806;2023-06-10T03:19:18;7.50;;;5.53;;
16737;SDS011;17906;47.684;10.806;2023-06-10T03:21:49;8.90;;;5.67;;
16737;SDS011;17906;47.684;10.806;2023-06-10T03:24:15;7.37;;;5.43;;
16737;SDS011;17906;47.684;10.806;2023-06-10T03:26:42;8.93;;;5.97;;
16737;SDS011;17906;47.684;10.806;2023-06-10T03:29:08;9.83;;;5.93;;
16737;SDS011;17906;47.684;10.806;2023-06-10T03:31:35;9.00;;;6.10;;
16737;SDS011;17906;47.684;10.806;2023-06-10T03:34:03;8.63;;;5.67;;
16737;SDS011;17906;47.684;10.806;2023-06-10T03:36:30;12.00;;;6.03;;
16737;SDS011;17906;47.684;10.806;2023-06-10T03:38:57;8.17;;;5.87;;
16737;SDS011;17906;47.684;10.806;2023-06-10T03:41:24;8.87;;;6.23;;
16737;SDS011;17906;47.684;10.806;2023-06-10T03:43:50;9.77;;;6.03;;
16737;SDS011;17906;47.684;10.806;2023-06-10T03:46:17;7.03;;;5.60;;
16737;SDS011;17906;47.684;10.806;2023-06-10T03:48:44;10.50;;;6.67;;
16737;SDS011;17906;47.684;10.806;2023-06-10T03:51:10;9.13;;;6.20;;
16737;SDS011;17906;47.684;10.806;2023-06-10T03:53:37;9.13;;;5.90;;
16737;SDS011;17906;47.684;10.806;2023-06-10T03:56:05;8.43;;;5.90;;
16737;SDS011;17906;47.684;10.806;2023-06-10T03:58:31;9.80;;;6.33;;
16737;SDS011;17906;47.684;10.806;2023-06-10T04:00:57;9.83;;;6.80;;
16737;SDS011;17906;47.684;10.806;2023-06-10T04:03:24;9.47;;;6.70;;
16737;SDS011;17906;47.684;10.806;2023-06-10T04:05:51;8.00;;;5.90;;
16737;SDS011;17906;47.684;10.806;2023-06-10T04:08:17;8.77;;;6.33;;
16737;SDS011;17906;47.684;10.806;2023-06-10T04:10:45;9.53;;;6.57;;
16737;SDS011;17906;47.684;10.806;2023-06-10T04:13:13;8.90;;;5.97;;
16737;SDS011;17906;47.684;10.806;2023-06-10T04:15:40;10.77;;;7.03;;
16737;SDS011;17906;47.684;10.806;2023-06-10T04:18:07;8.53;;;6.40;;
16737;SDS011;17906;47.684;10.806;2023-06-10T04:20:33;9.47;;;6.70;;
16737;SDS011;17906;47.684;10.806;2023-06-10T04:22:59;9.43;;;7.40;;
16737;SDS011;17906;47.684;10.806;2023-06-10T04:25:26;12.07;;;7.83;;
16737;SDS011;17906;47.684;10.806;2023-06-10T04:27:53;11.30;;;6.87;;
16737;SDS011;17906;47.684;10.806;2023-06-10T04:30:21;11.13;;;7.30;;
16737;SDS011;17906;47.684;10.806;2023-06-10T04:32:47;13.27;;;7.97;;
16737;SDS011;17906;47.684;10.806;2023-06-10T04:35:15;12.80;;;8.10;;
16737;SDS011;17906;47.684;10.806;2023-06-10T04:37:41;16.13;;;7.90;;
16737;SDS011;17906;47.684;10.806;2023-06-10T04:40:08;10.47;;;7.70;;
16737;SDS011;17906;47.684;10.806;2023-06-10T04:42:34;9.97;;;7.60;;
16737;SDS011;17906;47.684;10.806;2023-06-10T04:45:01;11.90;;;7.27;;
16737;SDS011;17906;47.684;10.806;2023-06-10T04:47:30;10.00;;;7.40;;
16737;SDS011;17906;47.684;10.806;2023-06-10T04:49:58;10.87;;;8.20;;
16737;SDS011;17906;47.684;10.806;2023-06-10T04:52:25;12.87;;;7.63;;
16737;SDS011;17906;47.684;10.806;2023-06-10T04:54:51;11.03;;;8.20;;
16737;SDS011;17906;47.684;10.806;2023-06-10T04:57:18;9.97;;;7.63;;
16737;SDS011;17906;47.684;10.806;2023-06-10T04:59:45;10.93;;;7.30;;
16737;SDS011;17906;47.684;10.806;2023-06-10T05:02:11;14.57;;;8.50;;
16737;SDS011;17906;47.684;10.806;2023-06-10T05:04:39;12.23;;;8.37;;
16737;SDS011;17906;47.684;10.806;2023-06-10T05:07:06;13.47;;;8.97;;
16737;SDS011;17906;47.684;10.806;2023-06-10T05:09:32;10.27;;;7.87;;
16737;SDS011;17906;47.684;10.806;2023-06-10T05:11:58;12.90;;;8.83;;
16737;SDS011;17906;47.684;10.806;2023-06-10T05:14:25;11.67;;;8.07;;
16737;SDS011;17906;47.684;10.806;2023-06-10T05:16:52;11.60;;;8.27;;
16737;SDS011;17906;47.684;10.806;2023-06-10T05:19:19;10.97;;;8.07;;
16737;SDS011;17906;47.684;10.806;2023-06-10T05:21:47;10.30;;;7.43;;
16737;SDS011;17906;47.684;10.806;2023-06-10T05:24:14;11.47;;;7.57;;
16737;SDS011;17906;47.684;10.806;2023-06-10T05:26:40;10.33;;;7.10;;
16737;SDS011;17906;47.684;10.806;2023-06-10T05:29:07;9.13;;;7.13;;
16737;SDS011;17906;47.684;10.806;2023-06-10T05:31:34;10.70;;;7.77;;
16737;SDS011;17906;47.684;10.806;2023-06-10T05:34:00;10.50;;;7.33;;
16737;SDS011;17906;47.684;10.806;2023-06-10T05:36:27;12.37;;;7.50;;
16737;SDS011;17906;47.684;10.806;2023-06-10T05:38:55;11.20;;;7.50;;
16737;SDS011;17906;47.684;10.806;2023-06-10T05:41:21;9.13;;;7.10;;
16737;SDS011;17906;47.684;10.806;2023-06-10T05:43:48;9.10;;;6.83;;
16737;SDS011;17906;47.684;10.806;2023-06-10T05:46:14;10.70;;;7.30;;
16737;SDS011;17906;47.684;10.806;2023-06-10T05:48:40;9.93;;;7.53;;
16737;SDS011;17906;47.684;10.806;2023-06-10T05:51:07;9.93;;;7.73;;
16737;SDS011;17906;47.684;10.806;2023-06-10T05:53:33;13.13;;;8.87;;
16737;SDS011;17906;47.684;10.806;2023-06-10T05:56:01;10.37;;;7.73;;
16737;SDS011;17906;47.684;10.806;2023-06-10T05:58:27;12.17;;;8.07;;
16737;SDS011;17906;47.684;10.806;2023-06-10T06:00:54;10.37;;;7.80;;
16737;SDS011;17906;47.684;10.806;2023-06-10T06:03:20;13.23;;;8.10;;
16737;SDS011;17906;47.684;10.806;2023-06-10T06:05:47;14.57;;;8.90;;
16737;SDS011;17906;47.684;10.806;2023-06-10T06:08:13;13.32;;;9.02;;
16737;SDS011;17906;47.684;10.806;2023-06-10T06:10:42;13.88;;;9.30;;
16737;SDS011;17906;47.684;10.806;2023-06-10T06:13:10;11.93;;;9.18;;
16737;SDS011;17906;47.684;10.806;2023-06-10T06:15:36;12.60;;;9.80;;
16737;SDS011;17906;47.684;10.806;2023-06-10T06:18:02;11.48;;;8.85;;
16737;SDS011;17906;47.684;10.806;2023-06-10T06:20:29;11.43;;;9.55;;
16737;SDS011;17906;47.684;10.806;2023-06-10T06:22:55;12.45;;;8.88;;
16737;SDS011;17906;47.684;10.806;2023-06-10T06:25:21;11.70;;;9.02;;
16737;SDS011;17906;47.684;10.806;2023-06-10T06:27:48;12.43;;;8.63;;
16737;SDS011;17906;47.684;10.806;2023-06-10T06:30:16;14.43;;;8.75;;
16737;SDS011;17906;47.684;10.806;2023-06-10T06:32:42;10.55;;;8.48;;
16737;SDS011;17906;47.684;10.806;2023-06-10T06:35:08;10.68;;;8.45;;
16737;SDS011;17906;47.684;10.806;2023-06-10T06:37:35;11.10;;;8.82;;
16737;SDS011;17906;47.684;10.806;2023-06-10T06:40:01;11.73;;;8.60;;
16737;SDS011;17906;47.684;10.806;2023-06-10T06:42:28;11.45;;;9.00;;
16737;SDS011;17906;47.684;10.806;2023-06-10T06:44:55;12.10;;;8.50;;
16737;SDS011;17906;47.684;10.806;2023-06-10T06:47:23;10.05;;;8.50;;
16737;SDS011;17906;47.684;10.806;2023-06-10T06:49:49;16.58;;;8.43;;
16737;SDS011;17906;47.684;10.806;2023-06-10T06:52:16;13.05;;;8.27;;
16737;SDS011;17906;47.684;10.806;2023-06-10T06:54:43;12.40;;;8.43;;
16737;SDS011;17906;47.684;10.806;2023-06-10T06:57:10;9.23;;;7.47;;
16737;SDS011;17906;47.684;10.806;2023-06-10T06:59:36;9.50;;;7.10;;
16737;SDS011;17906;47.684;10.806;2023-06-10T07:02:03;10.60;;;7.93;;
16737;SDS011;17906;47.684;10.806;2023-06-10T07:04:31;9.68;;;7.63;;
16737;SDS011;17906;47.684;10.806;2023-06-10T07:06:57;9.00;;;7.63;;
16737;SDS011;17906;47.684;10.806;2023-06-10T07:09:23;10.90;;;7.45;;
16737;SDS011;17906;47.684;10.806;2023-06-10T07:11:50;10.68;;;7.93;;
16737;SDS011;17906;47.684;10.806;2023-06-10T07:14:16;8.73;;;7.22;;
16737;SDS011;17906;47.684;10.806;2023-06-10T07:16:42;9.38;;;7.30;;
16737;SDS011;17906;47.684;10.806;2023-06-10T07:19:10;10.48;;;8.10;;
16737;SDS011;17906;47.684;10.806;2023-06-10T07:21:38;10.77;;;7.20;;
16737;SDS011;17906;47.684;10.806;2023-06-10T07:24:04;11.25;;;7.70;;
16737;SDS011;17906;47.684;10.806;2023-06-10T07:26:31;9.98;;;7.90;;
16737;SDS011;17906;47.684;10.806;2023-06-10T07:28:57;11.13;;;8.38;;
16737;SDS011;17906;47.684;10.806;2023-06-10T07:31:24;13.25;;;8.70;;
16737;SDS011;17906;47.684;10.806;2023-06-10T07:33:50;9.45;;;7.43;;
16737;SDS011;17906;47.684;10.806;2023-06-10T07:36:17;8.88;;;7.45;;
16737;SDS011;17906;47.684;10.806;2023-06-10T07:38:44;10.45;;;7.97;;
16737;SDS011;17906;47.684;10.806;2023-06-10T07:41:11;10.98;;;8.40;;
16737;SDS011;17906;47.684;10.806;2023-06-10T07:43:38;9.40;;;8.13;;
16737;SDS011;17906;47.684;10.806;2023-06-10T07:46:04;12.55;;;8.60;;
16737;SDS011;17906;47.684;10.806;2023-06-10T07:48:31;10.77;;;9.02;;
16737;SDS011;17906;47.684;10.806;2023-06-10T07:50:57;14.63;;;9.20;;
16737;SDS011;17906;47.684;10.806;2023-06-10T07:53:24;10.77;;;7.95;;
16737;SDS011;17906;47.684;10.806;2023-06-10T07:55:52;9.93;;;7.70;;
16737;SDS011;17906;47.684;10.806;2023-06-10T07:58:18;13.48;;;7.93;;
16737;SDS011;17906;47.684;10.806;2023-06-10T08:00:44;9.23;;;7.32;;
16737;SDS011;17906;47.684;10.806;2023-06-10T08:03:11;8.80;;;7.50;;
16737;SDS011;17906;47.684;10.806;2023-06-10T08:05:39;9.15;;;8.00;;
16737;SDS011;17906;47.684;10.806;2023-06-10T08:08:05;10.38;;;7.82;;
16737;SDS011;17906;47.684;10.806;2023-06-10T08:10:31;10.30;;;8.02;;
16737;SDS011;17906;47.684;10.806;2023-06-10T08:12:59;14.40;;;7.72;;
16737;SDS011;17906;47.684;10.806;2023-06-10T08:15:26;9.23;;;6.55;;
16737;SDS011;17906;47.684;10.806;2023-06-10T08:17:52;8.25;;;6.30;;
16737;SDS011;17906;47.684;10.806;2023-06-10T08:20:18;6.70;;;5.97;;
16737;SDS011;17906;47.684;10.806;2023-06-10T08:22:45;7.80;;;6.18;;
16737;SDS011;17906;47.684;10.806;2023-06-10T08:25:11;8.75;;;6.50;;
16737;SDS011;17906;47.684;10.806;2023-06-10T08:27:38;7.90;;;6.20;;
16737;SDS011;17906;47.684;10.806;2023-06-10T08:30:06;7.63;;;5.53;;
16737;SDS011;17906;47.684;10.806;2023-06-10T08:32:33;7.30;;;6.35;;
16737;SDS011;17906;47.684;10.806;2023-06-10T08:34:59;7.70;;;6.55;;
16737;SDS011;17906;47.684;10.806;2023-06-10T08:37:26;11.65;;;6.28;;
16737;SDS011;17906;47.684;10.806;2023-06-10T08:39:52;8.90;;;6.13;;
16737;SDS011;17906;47.684;10.806;2023-06-10T08:42:19;8.48;;;5.97;;
16737;SDS011;17906;47.684;10.806;2023-06-10T08:44:48;9.35;;;6.00;;
16737;SDS011;17906;47.684;10.806;2023-06-10T08:47:16;10.02;;;6.78;;
16737;SDS011;17906;47.684;10.806;2023-06-10T08:49:43;9.88;;;6.72;;
16737;SDS011;17906;47.684;10.806;2023-06-10T08:52:11;8.18;;;6.00;;
16737;SDS011;17906;47.684;10.806;2023-06-10T08:54:40;8.65;;;6.57;;
16737;SDS011;17906;47.684;10.806;2023-06-10T08:57:08;9.68;;;6.28;;
16737;SDS011;17906;47.684;10.806;2023-06-10T08:59:35;9.20;;;6.70;;
16737;SDS011;17906;47.684;10.806;2023-06-10T09:02:02;9.60;;;6.57;;
16737;SDS011;17906;47.684;10.806;2023-06-10T09:04:31;8.70;;;6.22;;
16737;SDS011;17906;47.684;10.806;2023-06-10T09:06:58;8.00;;;6.07;;
16737;SDS011;17906;47.684;10.806;2023-06-10T09:09:25;12.57;;;6.00;;
16737;SDS011;17906;47.684;10.806;2023-06-10T09:11:54;7.10;;;5.65;;
16737;SDS011;17906;47.684;10.806;2023-06-10T09:14:20;8.60;;;6.55;;
16737;SDS011;17906;47.684;10.806;2023-06-10T09:16:47;6.75;;;5.80;;
16737;SDS011;17906;47.684;10.806;2023-06-10T09:19:13;8.35;;;5.50;;
16737;SDS011;17906;47.684;10.806;2023-06-10T09:21:41;7.15;;;5.95;;
16737;SDS011;17906;47.684;10.806;2023-06-10T09:24:07;6.75;;;5.47;;
16737;SDS011;17906;47.684;10.806;2023-06-10T09:26:34;7.32;;;6.05;;
16737;SDS011;17906;47.684;10.806;2023-06-10T09:29:02;6.40;;;5.07;;
16737;SDS011;17906;47.684;10.806;2023-06-10T09:31:29;5.93;;;4.85;;
16737;SDS011;17906;47.684;10.806;2023-06-10T09:34:04;6.85;;;5.63;;
16737;SDS011;17906;47.684;10.806;2023-06-10T09:36:30;7.53;;;4.97;;
16737;SDS011;17906;47.684;10.806;2023-06-10T09:38:58;6.88;;;5.43;;
16737;SDS011;17906;47.684;10.806;2023-06-10T09:41:31;6.75;;;5.45;;
16737;SDS011;17906;47.684;10.806;2023-06-10T09:43:57;7.47;;;5.50;;
16737;SDS011;17906;47.684;10.806;2023-06-10T09:46:25;7.55;;;5.63;;
16737;SDS011;17906;47.684;10.806;2023-06-10T09:48:57;6.70;;;4.95;;
16737;SDS011;17906;47.684;10.806;2023-06-10T09:51:23;5.95;;;4.93;;
16737;SDS011;17906;47.684;10.806;2023-06-10T09:53:50;6.00;;;4.93;;
16737;SDS011;17906;47.684;10.806;2023-06-10T09:56:18;6.05;;;4.95;;
16737;SDS011;17906;47.684;10.806;2023-06-10T09:58:46;8.35;;;4.97;;
16737;SDS011;17906;47.684;10.806;2023-06-10T10:01:12;6.80;;;5.43;;
16737;SDS011;17906;47.684;10.806;2023-06-10T10:03:45;6.07;;;4.80;;
16737;SDS011;17906;47.684;10.806;2023-06-10T10:06:12;6.07;;;5.07;;
16737;SDS011;17906;47.684;10.806;2023-06-10T10:08:39;7.55;;;5.50;;
16737;SDS011;17906;47.684;10.806;2023-06-10T10:11:05;7.53;;;5.10;;
16737;SDS011;17906;47.684;10.806;2023-06-10T10:13:33;6.50;;;5.32;;
16737;SDS011;17906;47.684;10.806;2023-06-10T10:16:01;7.32;;;4.97;;
16737;SDS011;17906;47.684;10.806;2023-06-10T10:18:28;8.90;;;6.00;;
16737;SDS011;17906;47.684;10.806;2023-06-10T10:20:55;6.55;;;5.65;;
16737;SDS011;17906;47.684;10.806;2023-06-10T10:23:24;8.80;;;6.20;;
16737;SDS011;17906;47.684;10.806;2023-06-10T10:25:51;6.68;;;5.78;;
16737;SDS011;17906;47.684;10.806;2023-06-10T10:28:18;6.22;;;5.40;;
16737;SDS011;17906;47.684;10.806;2023-06-10T10:30:49;6.10;;;5.50;;
16737;SDS011;17906;47.684;10.806;2023-06-10T10:33:17;9.15;;;6.25;;
16737;SDS011;17906;47.684;10.806;2023-06-10T10:35:45;6.50;;;5.47;;
16737;SDS011;17906;47.684;10.806;2023-06-10T10:38:12;10.05;;;6.00;;
16737;SDS011;17906;47.684;10.806;2023-06-10T10:40:38;7.70;;;5.60;;
16737;SDS011;17906;47.684;10.806;2023-06-10T10:43:05;6.55;;;5.80;;
16737;SDS011;17906;47.684;10.806;2023-06-10T10:45:33;5.75;;;5.15;;
16737;SDS011;17906;47.684;10.806;2023-06-10T10:48:06;6.93;;;5.72;;
16737;SDS011;17906;47.684;10.806;2023-06-10T10:50:36;6.53;;;5.88;;
16737;SDS011;17906;47.684;10.806;2023-06-10T10:53:03;7.53;;;6.22;;
16737;SDS011;17906;47.684;10.806;2023-06-10T10:55:29;8.43;;;5.40;;
16737;SDS011;17906;47.684;10.806;2023-06-10T10:57:56;6.47;;;5.60;;
16737;SDS011;17906;47.684;10.806;2023-06-10T11:00:29;5.95;;;5.05;;
16737;SDS011;17906;47.684;10.806;2023-06-10T11:03:04;7.20;;;5.63;;
16737;SDS011;17906;47.684;10.806;2023-06-10T11:05:31;10.88;;;5.60;;
16737;SDS011;17906;47.684;10.806;2023-06-10T11:07:58;6.20;;;5.38;;
16737;SDS011;17906;47.684;10.806;2023-06-10T11:10:31;8.82;;;5.25;;
16737;SDS011;17906;47.684;10.806;2023-06-10T11:12:57;6.75;;;5.40;;
16737;SDS011;17906;47.684;10.806;2023-06-10T11:15:24;6.18;;;5.22;;
16737;SDS011;17906;47.684;10.806;2023-06-10T11:20:43;6.82;;;5.22;;
16737;SDS011;17906;47.684;10.806;2023-06-10T11:23:09;5.53;;;4.88;;
16737;SDS011;17906;47.684;10.806;2023-06-10T11:25:38;7.22;;;5.93;;
16737;SDS011;17906;47.684;10.806;2023-06-10T11:28:04;5.82;;;4.80;;
16737;SDS011;17906;47.684;10.806;2023-06-10T11:30:43;7.88;;;5.40;;
16737;SDS011;17906;47.684;10.806;2023-06-10T11:33:09;6.70;;;4.93;;
16737;SDS011;17906;47.684;10.806;2023-06-10T11:35:40;5.63;;;5.00;;
16737;SDS011;17906;47.684;10.806;2023-06-10T11:38:08;6.72;;;5.20;;
16737;SDS011;17906;47.684;10.806;2023-06-10T11:40:36;8.02;;;5.20;;
16737;SDS011;17906;47.684;10.806;2023-06-10T11:43:03;7.25;;;5.35;;
16737;SDS011;17906;47.684;10.806;2023-06-10T11:45:30;7.35;;;5.05;;
16737;SDS011;17906;47.684;10.806;2023-06-10T11:47:56;7.15;;;5.07;;
16737;SDS011;17906;47.684;10.806;2023-06-10T11:50:30;5.95;;;4.57;;
16737;SDS011;17906;47.684;10.806;2023-06-10T11:52:56;6.28;;;4.85;;
16737;SDS011;17906;47.684;10.806;2023-06-10T11:55:24;6.15;;;4.50;;
16737;SDS011;17906;47.684;10.806;2023-06-10T11:57:51;5.70;;;5.10;;
16737;SDS011;17906;47.684;10.806;2023-06-10T12:00:22;7.60;;;5.18;;
16737;SDS011;17906;47.684;10.806;2023-06-10T12:02:54;5.43;;;4.88;;
16737;SDS011;17906;47.684;10.806;2023-06-10T12:05:20;6.05;;;4.55;;
16737;SDS011;17906;47.684;10.806;2023-06-10T12:07:47;5.10;;;4.60;;
16737;SDS011;17906;47.684;10.806;2023-06-10T12:10:13;7.63;;;4.75;;
16737;SDS011;17906;47.684;10.806;2023-06-10T12:12:41;6.80;;;5.13;;
16737;SDS011;17906;47.684;10.806;2023-06-10T12:15:08;6.90;;;5.10;;
16737;SDS011;17906;47.684;10.806;2023-06-10T12:17:35;5.32;;;4.82;;
16737;SDS011;17906;47.684;10.806;2023-06-10T12:20:03;5.45;;;4.63;;
16737;SDS011;17906;47.684;10.806;2023-06-10T12:22:35;6.72;;;4.70;;
16737;SDS011;17906;47.684;10.806;2023-06-10T12:25:02;8.13;;;4.97;;
16737;SDS011;17906;47.684;10.806;2023-06-10T12:27:29;5.70;;;4.75;;
16737;SDS011;17906;47.684;10.806;2023-06-10T12:29:58;6.30;;;4.70;;
16737;SDS011;17906;47.684;10.806;2023-06-10T12:32:34;7.13;;;5.05;;
16737;SDS011;17906;47.684;10.806;2023-06-10T12:35:05;8.15;;;4.75;;
16737;SDS011;17906;47.684;10.806;2023-06-10T12:37:31;5.05;;;4.55;;
16737;SDS011;17906;47.684;10.806;2023-06-10T12:39:59;5.13;;;4.57;;
16737;SDS011;17906;47.684;10.806;2023-06-10T12:42:26;5.07;;;4.13;;
16737;SDS011;17906;47.684;10.806;2023-06-10T12:44:53;4.82;;;4.38;;
16737;SDS011;17906;47.684;10.806;2023-06-10T12:47:21;5.90;;;4.68;;
16737;SDS011;17906;47.684;10.806;2023-06-10T12:49:56;4.95;;;4.32;;
16737;SDS011;17906;47.684;10.806;2023-06-10T12:52:23;6.70;;;4.75;;
16737;SDS011;17906;47.684;10.806;2023-06-10T12:54:50;5.20;;;4.07;;
16737;SDS011;17906;47.684;10.806;2023-06-10T12:57:16;5.70;;;4.45;;
16737;SDS011;17906;47.684;10.806;2023-06-10T12:59:43;5.43;;;4.47;;
16737;SDS011;17906;47.684;10.806;2023-06-10T13:02:15;6.50;;;4.70;;
16737;SDS011;17906;47.684;10.806;2023-06-10T13:04:44;5.32;;;3.95;;
16737;SDS011;17906;47.684;10.806;2023-06-10T13:07:10;4.40;;;4.00;;
16737;SDS011;17906;47.684;10.806;2023-06-10T13:09:37;5.50;;;4.10;;
16737;SDS011;17906;47.684;10.806;2023-06-10T13:12:04;4.78;;;3.90;;
16737;SDS011;17906;47.684;10.806;2023-06-10T13:14:31;5.10;;;4.40;;
16737;SDS011;17906;47.684;10.806;2023-06-10T13:16:57;5.03;;;4.35;;
16737;SDS011;17906;47.684;10.806;2023-06-10T13:19:24;4.63;;;4.13;;
16737;SDS011;17906;47.684;10.806;2023-06-10T13:21:52;4.15;;;3.47;;
16737;SDS011;17906;47.684;10.806;2023-06-10T13:24:18;5.60;;;4.03;;
16737;SDS011;17906;47.684;10.806;2023-06-10T13:26:45;5.85;;;3.92;;
16737;SDS011;17906;47.684;10.806;2023-06-10T13:29:11;5.32;;;3.70;;
16737;SDS011;17906;47.684;10.806;2023-06-10T13:31:39;6.45;;;3.92;;
16737;SDS011;17906;47.684;10.806;2023-06-10T13:34:06;4.53;;;3.83;;
16737;SDS011;17906;47.684;10.806;2023-06-10T13:36:32;4.57;;;3.90;;
16737;SDS011;17906;47.684;10.806;2023-06-10T13:39:00;4.50;;;4.00;;
16737;SDS011;17906;47.684;10.806;2023-06-10T13:41:26;4.38;;;3.35;;
16737;SDS011;17906;47.684;10.806;2023-06-10T13:43:53;5.65;;;3.88;;
16737;SDS011;17906;47.684;10.806;2023-06-10T13:46:20;3.95;;;3.55;;
16737;SDS011;17906;47.684;10.806;2023-06-10T13:48:46;4.93;;;4.18;;
16737;SDS011;17906;47.684;10.806;2023-06-10T13:51:13;7.97;;;3.85;;
16737;SDS011;17906;47.684;10.806;2023-06-10T13:53:39;4.30;;;3.75;;
16737;SDS011;17906;47.684;10.806;2023-06-10T13:56:07;5.53;;;4.30;;
16737;SDS011;17906;47.684;10.806;2023-06-10T13:58:33;4.25;;;3.45;;
16737;SDS011;17906;47.684;10.806;2023-06-10T14:01:03;6.20;;;4.10;;
16737;SDS011;17906;47.684;10.806;2023-06-10T14:03:30;4.80;;;3.97;;
16737;SDS011;17906;47.684;10.806;2023-06-10T14:05:56;5.68;;;3.75;;
16737;SDS011;17906;47.684;10.806;2023-06-10T14:08:23;4.25;;;3.85;;
16737;SDS011;17906;47.684;10.806;2023-06-10T14:10:49;5.72;;;4.03;;
16737;SDS011;17906;47.684;10.806;2023-06-10T14:13:18;7.10;;;4.18;;
16737;SDS011;17906;47.684;10.806;2023-06-10T14:15:44;4.20;;;3.50;;
16737;SDS011;17906;47.684;10.806;2023-06-10T14:18:11;4.07;;;3.55;;
16737;SDS011;17906;47.684;10.806;2023-06-10T14:20:38;5.47;;;3.95;;
16737;SDS011;17906;47.684;10.806;2023-06-10T14:23:04;4.60;;;3.80;;
16737;SDS011;17906;47.684;10.806;2023-06-10T14:25:30;5.63;;;3.72;;
16737;SDS011;17906;47.684;10.806;2023-06-10T14:27:57;6.47;;;4.10;;
16737;SDS011;17906;47.684;10.806;2023-06-10T14:30:25;5.00;;;3.72;;
16737;SDS011;17906;47.684;10.806;2023-06-10T14:32:51;4.25;;;3.78;;